CPX226 Details

Departure: Los Angeles International Airport (KLAX) at 0130 UTC
Arrival: Daniel K Inouye International Airport (PHNL) at 0730 UTC
Route: SUMMR1 DINTY DUETS R576 DENNS MAGGI3


Current Weather Information
KLAX 251125Z 07003KT 10SM BKN010 14/12 A2988 RMK AO2 T01390117
PHNL 251053Z 08008KT 10SM FEW026 FEW060 26/19 A3006 RMK AO2 SLP180 T02610194 $